Pagrindinis puslapis
METAR-TAF:

METAR-TAF

Oro uostai :

Džohor Baru, Malaizija

platuma: 01-38N, ilguma: 103-40E, Aukštis: 37 m

Dabartinis oras

Ataskaita buvo paskelbta 24 minutes, ne 21:00 UTC
Ramus vėjas
Temperatūra 25°C
Drėgmė 94%
Slėgis 1008 hPa
Matomumas: 6000 m
Mažai debesys ne aukštis 2400 ft

METAR: WMKJ 222100Z 00000KT 6000 FEW024 25/24 Q1008

Laikas: 05:24 (21:24 UTC)

Prognozė

Ataskaita buvo paskelbta 51 minutes, ne 20:33 UTC
Prognozė galioja nuo 22 metu 20 UTC su 23 metu 18 UTC
Vėjas 5 kt iš Vakarų
Matomumas 10 km arba daugiau
Mažai debesys ne aukštis 2200 ft
Laikinai
nuo 23 metu 05 UTC su 23 metu 08 UTC
Matomumas: 4000 m
Mažai debesys ne aukštis 1700 ft, Liūtiniai kamuoliniai debesys.
perkūnija, lietus

TAF: WMKJ 222033Z 2220/2318 28005KT 9999 FEW022 TEMPO 2305/2308 4000 TSRA FEW017CB

Orai ataskaitas ir orų prognozės (METAR, TAF).

turimą stotys yra geltonos ir raudonos taškus žemėlapyje.

Perkelti pele per norėdami pamatyti stoties vardą.

Tada spustelėkite, norėdami matyti oro stebėjimo ir prognozės.

Norėdami pakeisti žemėlapį: spustelėkite ant žalios mygtukų su juodo kryžiaus žemyn,; žalią mygtuką su brūkšneliu, jei norite nutolinti; arba žalių rodyklių gretimoms žemėlapius.


METAR-TAF: